<?xml version='1.0' encoding='UTF-8'?>
<gpx xmlns="http://www.topografix.com/GPX/1/1" creator="www.balnam.be" version="1.1" xmlns:xsi="http://www.w3.org/2001/XMLSchema-instance" xsi:schemaLocation="http://www.topografix.com/GPX/1/1 http://www.topografix.com/GPX/1/1/gpx.xsd">
<trk>
<name>nasasLv521</name>
<cmt>q</cmt>
<desc>Assesse Chemin n°Lv521 </desc>
<link href="https://chemins.be/assesse/chemin/Lv521"/><trkseg>
<trkpt lat="50.384637" lon="4.997876"><time>2026-05-03T01:37:29Z</time></trkpt>
<trkpt lat="50.384804" lon="4.998553"><time>2026-05-03T01:47:29Z</time></trkpt>
<trkpt lat="50.385187" lon="4.999346"><time>2026-05-03T01:57:29Z</time></trkpt>
<trkpt lat="50.385686" lon="5.000112"><time>2026-05-03T02:07:29Z</time></trkpt>
<trkpt lat="50.386390" lon="5.001232"><time>2026-05-03T02:17:29Z</time></trkpt>
<trkpt lat="50.386762" lon="5.002376"><time>2026-05-03T02:27:29Z</time></trkpt>
<trkpt lat="50.387193" lon="5.003985"><time>2026-05-03T02:37:29Z</time></trkpt>
<trkpt lat="50.387793" lon="5.006046"><time>2026-05-03T02:47:29Z</time></trkpt>
<trkpt lat="50.388330" lon="5.008448"><time>2026-05-03T02:57:29Z</time></trkpt>
<trkpt lat="50.388610" lon="5.009615"><time>2026-05-03T03:07:29Z</time></trkpt>
<trkpt lat="50.389263" lon="5.011733"><time>2026-05-03T03:17:29Z</time></trkpt>
<trkpt lat="50.390161" lon="5.015191"><time>2026-05-03T03:27:29Z</time></trkpt>
<trkpt lat="50.390356" lon="5.015826"><time>2026-05-03T03:37:29Z</time></trkpt>
<trkpt lat="50.390821" lon="5.017858"><time>2026-05-03T03:47:29Z</time></trkpt>
<trkpt lat="50.391857" lon="5.020643"><time>2026-05-03T03:57:29Z</time></trkpt>
<trkpt lat="50.392372" lon="5.021859"><time>2026-05-03T04:07:29Z</time></trkpt>
<trkpt lat="50.393205" lon="5.023896"><time>2026-05-03T04:17:29Z</time></trkpt>
<trkpt lat="50.393721" lon="5.024972"><time>2026-05-03T04:27:29Z</time></trkpt>
<trkpt lat="50.394050" lon="5.025609"><time>2026-05-03T04:37:29Z</time></trkpt>
<trkpt lat="50.394769" lon="5.027166"><time>2026-05-03T04:47:29Z</time></trkpt>
<trkpt lat="50.395543" lon="5.028556"><time>2026-05-03T04:57:29Z</time></trkpt>
<trkpt lat="50.396094" lon="5.029801"><time>2026-05-03T05:07:29Z</time></trkpt>
<trkpt lat="50.396520" lon="5.030707"><time>2026-05-03T05:17:29Z</time></trkpt>
<trkpt lat="50.396725" lon="5.031033"><time>2026-05-03T05:27:29Z</time></trkpt>
<trkpt lat="50.397249" lon="5.032194"><time>2026-05-03T05:37:29Z</time></trkpt>
<trkpt lat="50.397996" lon="5.033667"><time>2026-05-03T05:47:29Z</time></trkpt>
<trkpt lat="50.398837" lon="5.035021"><time>2026-05-03T05:57:29Z</time></trkpt>
</trkseg>
</trk>
</gpx>